createdAt,value
2022-11-29T00:00:23.539Z,100961.08
2022-11-29T00:15:40.863Z,100954.25
2022-11-29T00:30:43.425Z,100955.53
2022-11-29T00:46:01.389Z,100949.56
2022-11-29T01:01:04.704Z,100947.85
2022-11-29T01:16:08.403Z,100949.72
2022-11-29T01:31:16.461Z,100947.19
2022-11-29T01:46:18.914Z,100947.38
2022-11-29T02:01:21.549Z,100940.88
2022-11-29T02:16:53.533Z,100939.40
2022-11-29T02:32:36.994Z,100943.56
2022-11-29T02:48:28.508Z,100950.14
2022-11-29T03:03:50.270Z,100962.83
2022-11-29T03:19:29.541Z,100974.61
2022-11-29T03:34:44.609Z,100973.66
2022-11-29T03:50:06.908Z,100983.97
2022-11-29T04:06:13.877Z,100990.16
2022-11-29T04:21:36.662Z,101001.14
2022-11-29T04:37:04.970Z,101011.27
2022-11-29T04:52:30.635Z,101019.24
2022-11-29T05:07:52.367Z,101023.52
2022-11-29T05:23:48.030Z,101032.46
2022-11-29T05:39:35.690Z,101044.29
2022-11-29T05:54:47.649Z,101055.06
2022-11-29T06:10:01.955Z,101069.21
2022-11-29T06:25:49.521Z,101083.36
2022-11-29T06:41:12.979Z,101103.77
2022-11-29T06:56:33.967Z,101113.88
2022-11-29T07:11:37.173Z,101118.02
2022-11-29T07:27:11.286Z,101126.44
2022-11-29T07:43:09.026Z,101130.58
2022-11-29T07:58:26.215Z,101147.20
2022-11-29T08:13:29.207Z,101153.67
2022-11-29T08:28:31.922Z,101158.77
2022-11-29T08:43:35.877Z,101165.00
2022-11-29T08:58:39.499Z,101168.98
2022-11-29T09:13:48.865Z,101174.89
2022-11-29T09:28:51.937Z,101179.07
2022-11-29T09:44:19.064Z,101189.44
2022-11-29T09:59:37.541Z,101192.60
2022-11-29T10:30:35.985Z,101189.70
2022-11-29T10:45:43.699Z,101194.44
2022-11-29T11:00:57.013Z,101196.95
2022-11-29T11:16:16.869Z,101202.59
2022-11-29T11:31:39.120Z,101204.00
2022-11-29T11:46:49.740Z,101205.61
2022-11-29T12:01:53.191Z,101208.36
2022-11-29T12:17:08.802Z,101208.77
2022-11-29T12:32:21.645Z,101211.70
2022-11-29T12:47:51.482Z,101221.49
2022-11-29T13:03:05.404Z,101231.45
2022-11-29T13:18:25.876Z,101239.08
2022-11-29T13:34:07.025Z,101255.58
2022-11-29T13:49:50.894Z,101269.05
2022-11-29T14:04:53.916Z,101284.31
2022-11-29T14:20:22.494Z,101292.61
2022-11-29T14:35:43.572Z,101303.24
2022-11-29T14:50:47.112Z,101308.55
2022-11-29T15:06:24.209Z,101316.17
2022-11-29T15:21:45.730Z,101324.05
2022-11-29T15:36:48.636Z,101330.95
2022-11-29T15:52:07.872Z,101332.58
2022-11-29T16:07:12.279Z,101338.67
2022-11-29T16:22:26.481Z,101341.20
2022-11-29T16:37:46.425Z,101354.38
2022-11-29T16:52:56.369Z,101366.10
2022-11-29T17:08:00.217Z,101374.66
2022-11-29T17:23:03.612Z,101379.79
2022-11-29T17:38:06.347Z,101391.91
2022-11-29T17:53:09.635Z,101396.74
2022-11-29T18:08:12.323Z,101401.39
2022-11-29T18:23:15.157Z,101404.30
2022-11-29T18:38:17.951Z,101418.19
2022-11-29T18:53:21.096Z,101425.21
2022-11-29T19:08:40.305Z,101429.25
2022-11-29T19:23:49.702Z,101433.58
2022-11-29T19:38:54.640Z,101441.79
2022-11-29T19:54:01.652Z,101448.27
2022-11-29T20:09:05.912Z,101451.88
2022-11-29T20:24:09.696Z,101457.46
2022-11-29T20:39:35.336Z,101470.36
2022-11-29T20:54:38.545Z,101470.19
2022-11-29T21:10:00.910Z,101469.51
2022-11-29T21:25:27.113Z,101473.63
2022-11-29T21:40:30.068Z,101486.69
2022-11-29T21:55:33.166Z,101490.54
2022-11-29T22:10:36.399Z,101499.61
2022-11-29T22:25:39.060Z,101497.20
2022-11-29T22:40:42.052Z,101490.14
2022-11-29T22:55:45.100Z,101487.65
2022-11-29T23:11:03.803Z,101494.81
2022-11-29T23:26:08.651Z,101491.29
2022-11-29T23:41:12.635Z,101503.02
